sensor_id;sensor_type;location;lat;lon;timestamp;pressure;altitude;pressure_sealevel;temperature
48003;BMP280;33768;48.578;11.574;2023-04-01T00:00:18;95172.34;;;8.59
48003;BMP280;33768;48.578;11.574;2023-04-01T00:03:24;95169.44;;;8.57
48003;BMP280;33768;48.578;11.574;2023-04-01T00:06:33;95164.53;;;8.56
48003;BMP280;33768;48.578;11.574;2023-04-01T00:09:37;95170.69;;;8.49
48003;BMP280;33768;48.578;11.574;2023-04-01T00:12:41;95173.22;;;8.47
48003;BMP280;33768;48.578;11.574;2023-04-01T00:15:45;95170.84;;;8.43
48003;BMP280;33768;48.578;11.574;2023-04-01T00:18:50;95166.13;;;8.44
48003;BMP280;33768;48.578;11.574;2023-04-01T00:21:54;95161.97;;;8.43
48003;BMP280;33768;48.578;11.574;2023-04-01T00:25:01;95165.78;;;8.47
48003;BMP280;33768;48.578;11.574;2023-04-01T00:28:08;95163.28;;;8.49
48003;BMP280;33768;48.578;11.574;2023-04-01T00:31:13;95167.81;;;8.54
48003;BMP280;33768;48.578;11.574;2023-04-01T00:34:18;95170.16;;;8.50
48003;BMP280;33768;48.578;11.574;2023-04-01T00:37:22;95162.91;;;8.53
48003;BMP280;33768;48.578;11.574;2023-04-01T00:43:37;95159.28;;;8.50
48003;BMP280;33768;48.578;11.574;2023-04-01T00:46:41;95167.94;;;8.49
48003;BMP280;33768;48.578;11.574;2023-04-01T00:49:49;95157.06;;;8.42
48003;BMP280;33768;48.578;11.574;2023-04-01T00:52:53;95171.94;;;8.41
48003;BMP280;33768;48.578;11.574;2023-04-01T00:56:07;95170.09;;;8.36
48003;BMP280;33768;48.578;11.574;2023-04-01T00:59:26;95165.75;;;8.33
48003;BMP280;33768;48.578;11.574;2023-04-01T01:02:33;95163.94;;;8.35
48003;BMP280;33768;48.578;11.574;2023-04-01T01:05:59;95149.44;;;8.33
48003;BMP280;33768;48.578;11.574;2023-04-01T01:12:35;95144.34;;;8.22
48003;BMP280;33768;48.578;11.574;2023-04-01T01:15:58;95133.97;;;8.13
48003;BMP280;33768;48.578;11.574;2023-04-01T01:22:52;95142.50;;;8.17
48003;BMP280;33768;48.578;11.574;2023-04-01T01:33:25;95137.03;;;8.10
48003;BMP280;33768;48.578;11.574;2023-04-01T01:36:36;95132.34;;;8.10
48003;BMP280;33768;48.578;11.574;2023-04-01T01:39:48;95126.47;;;8.06
48003;BMP280;33768;48.578;11.574;2023-04-01T01:42:57;95117.97;;;8.02
48003;BMP280;33768;48.578;11.574;2023-04-01T01:46:11;95122.31;;;8.05
48003;BMP280;33768;48.578;11.574;2023-04-01T01:49:17;95127.56;;;8.03
48003;BMP280;33768;48.578;11.574;2023-04-01T01:52:23;95124.66;;;8.01
48003;BMP280;33768;48.578;11.574;2023-04-01T01:55:33;95124.81;;;7.96
48003;BMP280;33768;48.578;11.574;2023-04-01T01:58:41;95121.75;;;7.92
48003;BMP280;33768;48.578;11.574;2023-04-01T02:01:51;95121.19;;;7.93
48003;BMP280;33768;48.578;11.574;2023-04-01T02:04:58;95127.88;;;7.92
48003;BMP280;33768;48.578;11.574;2023-04-01T02:08:07;95122.47;;;7.92
48003;BMP280;33768;48.578;11.574;2023-04-01T02:11:17;95130.41;;;7.90
48003;BMP280;33768;48.578;11.574;2023-04-01T02:14:36;95117.03;;;7.92
48003;BMP280;33768;48.578;11.574;2023-04-01T02:17:43;95117.56;;;7.91
48003;BMP280;33768;48.578;11.574;2023-04-01T02:20:49;95115.59;;;7.91
48003;BMP280;33768;48.578;11.574;2023-04-01T02:23:53;95124.97;;;7.90
48003;BMP280;33768;48.578;11.574;2023-04-01T02:26:58;95127.38;;;7.94
48003;BMP280;33768;48.578;11.574;2023-04-01T02:30:03;95125.72;;;7.98
48003;BMP280;33768;48.578;11.574;2023-04-01T02:33:08;95123.91;;;7.93
48003;BMP280;33768;48.578;11.574;2023-04-01T02:36:14;95130.22;;;7.88
48003;BMP280;33768;48.578;11.574;2023-04-01T02:39:18;95128.78;;;7.87
48003;BMP280;33768;48.578;11.574;2023-04-01T02:42:22;95125.88;;;7.85
48003;BMP280;33768;48.578;11.574;2023-04-01T02:45:26;95136.00;;;7.85
48003;BMP280;33768;48.578;11.574;2023-04-01T02:48:30;95141.09;;;7.88
48003;BMP280;33768;48.578;11.574;2023-04-01T02:51:35;95136.94;;;7.87
48003;BMP280;33768;48.578;11.574;2023-04-01T02:54:39;95142.00;;;7.91
48003;BMP280;33768;48.578;11.574;2023-04-01T02:57:43;95147.09;;;7.94
48003;BMP280;33768;48.578;11.574;2023-04-01T03:00:47;95148.34;;;7.93
48003;BMP280;33768;48.578;11.574;2023-04-01T03:03:51;95152.53;;;7.94
48003;BMP280;33768;48.578;11.574;2023-04-01T03:06:56;95149.44;;;7.90
48003;BMP280;33768;48.578;11.574;2023-04-01T03:10:00;95144.88;;;7.85
48003;BMP280;33768;48.578;11.574;2023-04-01T03:13:04;95169.53;;;7.87
48003;BMP280;33768;48.578;11.574;2023-04-01T03:16:09;95158.66;;;7.87
48003;BMP280;33768;48.578;11.574;2023-04-01T03:19:13;95169.88;;;7.84
48003;BMP280;33768;48.578;11.574;2023-04-01T03:22:17;95168.75;;;7.79
48003;BMP280;33768;48.578;11.574;2023-04-01T03:25:24;95170.94;;;7.81
48003;BMP280;33768;48.578;11.574;2023-04-01T03:28:29;95177.50;;;7.93
48003;BMP280;33768;48.578;11.574;2023-04-01T03:31:33;95177.50;;;7.93
48003;BMP280;33768;48.578;11.574;2023-04-01T03:34:38;95178.78;;;7.92
48003;BMP280;33768;48.578;11.574;2023-04-01T03:37:42;95174.56;;;7.83
48003;BMP280;33768;48.578;11.574;2023-04-01T03:40:46;95176.72;;;7.78
48003;BMP280;33768;48.578;11.574;2023-04-01T03:43:50;95181.41;;;7.77
48003;BMP280;33768;48.578;11.574;2023-04-01T03:46:54;95192.63;;;7.74
48003;BMP280;33768;48.578;11.574;2023-04-01T03:49:58;95188.22;;;7.63
48003;BMP280;33768;48.578;11.574;2023-04-01T03:53:03;95190.00;;;7.61
48003;BMP280;33768;48.578;11.574;2023-04-01T03:56:08;95184.97;;;7.65
48003;BMP280;33768;48.578;11.574;2023-04-01T03:59:14;95176.97;;;7.59
48003;BMP280;33768;48.578;11.574;2023-04-01T04:02:18;95184.91;;;7.57
48003;BMP280;33768;48.578;11.574;2023-04-01T04:05:23;95187.78;;;7.52
48003;BMP280;33768;48.578;11.574;2023-04-01T04:08:27;95185.03;;;7.45
48003;BMP280;33768;48.578;11.574;2023-04-01T04:11:32;95193.69;;;7.43
48003;BMP280;33768;48.578;11.574;2023-04-01T04:14:40;95186.59;;;7.40
48003;BMP280;33768;48.578;11.574;2023-04-01T04:17:45;95193.63;;;7.36
48003;BMP280;33768;48.578;11.574;2023-04-01T04:20:50;95194.19;;;7.34
48003;BMP280;33768;48.578;11.574;2023-04-01T04:23:55;95193.97;;;7.32
48003;BMP280;33768;48.578;11.574;2023-04-01T04:26:59;95211.53;;;7.31
48003;BMP280;33768;48.578;11.574;2023-04-01T04:30:04;95198.81;;;7.26
48003;BMP280;33768;48.578;11.574;2023-04-01T04:33:09;95205.13;;;7.21
48003;BMP280;33768;48.578;11.574;2023-04-01T04:36:14;95211.06;;;7.20
48003;BMP280;33768;48.578;11.574;2023-04-01T04:39:19;95213.47;;;7.23
48003;BMP280;33768;48.578;11.574;2023-04-01T04:42:24;95217.69;;;7.32
48003;BMP280;33768;48.578;11.574;2023-04-01T04:45:33;95224.25;;;7.36
48003;BMP280;33768;48.578;11.574;2023-04-01T04:48:38;95230.44;;;7.44
48003;BMP280;33768;48.578;11.574;2023-04-01T04:51:42;95213.59;;;7.46
48003;BMP280;33768;48.578;11.574;2023-04-01T04:54:47;95217.44;;;7.50
48003;BMP280;33768;48.578;11.574;2023-04-01T04:57:51;95206.00;;;7.44
48003;BMP280;33768;48.578;11.574;2023-04-01T05:00:55;95215.22;;;7.41
48003;BMP280;33768;48.578;11.574;2023-04-01T05:04:08;95220.25;;;7.37
48003;BMP280;33768;48.578;11.574;2023-04-01T05:07:12;95218.06;;;7.36
48003;BMP280;33768;48.578;11.574;2023-04-01T05:10:16;95222.03;;;7.35
48003;BMP280;33768;48.578;11.574;2023-04-01T05:13:20;95220.91;;;7.30
48003;BMP280;33768;48.578;11.574;2023-04-01T05:16:25;95219.19;;;7.40
48003;BMP280;33768;48.578;11.574;2023-04-01T05:19:30;95215.13;;;7.54
48003;BMP280;33768;48.578;11.574;2023-04-01T05:22:36;95226.63;;;7.67
48003;BMP280;33768;48.578;11.574;2023-04-01T05:25:41;95214.78;;;7.85
48003;BMP280;33768;48.578;11.574;2023-04-01T05:28:46;95226.56;;;7.87
48003;BMP280;33768;48.578;11.574;2023-04-01T05:31:51;95222.22;;;7.84
48003;BMP280;33768;48.578;11.574;2023-04-01T05:34:55;95217.75;;;7.94
48003;BMP280;33768;48.578;11.574;2023-04-01T05:37:59;95223.84;;;7.87
48003;BMP280;33768;48.578;11.574;2023-04-01T05:41:04;95228.00;;;7.88
48003;BMP280;33768;48.578;11.574;2023-04-01T05:44:12;95216.25;;;7.93
48003;BMP280;33768;48.578;11.574;2023-04-01T05:47:19;95233.00;;;8.05
48003;BMP280;33768;48.578;11.574;2023-04-01T05:50:23;95230.16;;;8.10
48003;BMP280;33768;48.578;11.574;2023-04-01T05:53:27;95223.31;;;8.16
48003;BMP280;33768;48.578;11.574;2023-04-01T05:56:32;95227.13;;;8.21
48003;BMP280;33768;48.578;11.574;2023-04-01T05:59:37;95226.03;;;8.24
48003;BMP280;33768;48.578;11.574;2023-04-01T06:02:41;95228.94;;;8.26
48003;BMP280;33768;48.578;11.574;2023-04-01T06:05:46;95232.78;;;8.30
48003;BMP280;33768;48.578;11.574;2023-04-01T06:08:52;95231.75;;;8.41
48003;BMP280;33768;48.578;11.574;2023-04-01T06:19:32;95234.72;;;8.57
48003;BMP280;33768;48.578;11.574;2023-04-01T06:33:52;95238.75;;;8.78
48003;BMP280;33768;48.578;11.574;2023-04-01T06:37:17;95233.41;;;9.23
48003;BMP280;33768;48.578;11.574;2023-04-01T06:47:22;95240.63;;;9.94
48003;BMP280;33768;48.578;11.574;2023-04-01T06:54:38;95242.09;;;9.80
48003;BMP280;33768;48.578;11.574;2023-04-01T06:58:04;95237.38;;;9.59
48003;BMP280;33768;48.578;11.574;2023-04-01T07:01:42;95237.38;;;9.51
48003;BMP280;33768;48.578;11.574;2023-04-01T07:04:51;95249.38;;;9.41
48003;BMP280;33768;48.578;11.574;2023-04-01T07:07:59;95245.38;;;9.42
48003;BMP280;33768;48.578;11.574;2023-04-01T07:11:06;95249.91;;;9.47
48003;BMP280;33768;48.578;11.574;2023-04-01T07:14:48;95245.56;;;9.59
48003;BMP280;33768;48.578;11.574;2023-04-01T07:17:57;95241.38;;;9.58
48003;BMP280;33768;48.578;11.574;2023-04-01T07:21:03;95239.91;;;9.71
48003;BMP280;33768;48.578;11.574;2023-04-01T07:24:25;95238.44;;;10.00
48003;BMP280;33768;48.578;11.574;2023-04-01T07:27:42;95238.25;;;10.05
48003;BMP280;33768;48.578;11.574;2023-04-01T07:34:05;95236.94;;;11.30
48003;BMP280;33768;48.578;11.574;2023-04-01T07:43:52;95245.56;;;11.20
48003;BMP280;33768;48.578;11.574;2023-04-01T07:50:29;95247.63;;;11.12
48003;BMP280;33768;48.578;11.574;2023-04-01T07:54:12;95242.03;;;11.58
48003;BMP280;33768;48.578;11.574;2023-04-01T08:12:04;95226.72;;;12.80
48003;BMP280;33768;48.578;11.574;2023-04-01T08:15:56;95230.34;;;12.65
48003;BMP280;33768;48.578;11.574;2023-04-01T08:22:49;95243.81;;;12.20
48003;BMP280;33768;48.578;11.574;2023-04-01T08:26:13;95231.25;;;12.01
48003;BMP280;33768;48.578;11.574;2023-04-01T08:29:25;95247.69;;;11.77
48003;BMP280;33768;48.578;11.574;2023-04-01T08:32:39;95237.84;;;11.57
48003;BMP280;33768;48.578;11.574;2023-04-01T08:39:11;95245.44;;;11.42
48003;BMP280;33768;48.578;11.574;2023-04-01T08:46:12;95241.78;;;11.39
48003;BMP280;33768;48.578;11.574;2023-04-01T09:06:40;95208.69;;;13.03
48003;BMP280;33768;48.578;11.574;2023-04-01T09:17:01;95212.19;;;12.60
48003;BMP280;33768;48.578;11.574;2023-04-01T09:27:10;95217.44;;;12.16
48003;BMP280;33768;48.578;11.574;2023-04-01T09:30:33;95229.97;;;12.02
48003;BMP280;33768;48.578;11.574;2023-04-01T09:33:52;95208.13;;;11.61
48003;BMP280;33768;48.578;11.574;2023-04-01T09:41:11;95205.16;;;11.66
48003;BMP280;33768;48.578;11.574;2023-04-01T09:44:48;95213.34;;;11.66
48003;BMP280;33768;48.578;11.574;2023-04-01T09:54:50;95191.25;;;12.39
48003;BMP280;33768;48.578;11.574;2023-04-01T10:26:34;95196.66;;;11.96
48003;BMP280;33768;48.578;11.574;2023-04-01T10:36:54;95191.91;;;11.96
48003;BMP280;33768;48.578;11.574;2023-04-01T10:44:14;95186.50;;;12.56
48003;BMP280;33768;48.578;11.574;2023-04-01T10:54:46;95187.97;;;12.23
48003;BMP280;33768;48.578;11.574;2023-04-01T11:09:14;95194.06;;;11.40
48003;BMP280;33768;48.578;11.574;2023-04-01T11:17:10;95212.91;;;11.29
48003;BMP280;33768;48.578;11.574;2023-04-01T11:20:05;95216.50;;;11.07
48003;BMP280;33768;48.578;11.574;2023-04-01T11:23:26;95211.88;;;10.93
48003;BMP280;33768;48.578;11.574;2023-04-01T11:34:14;95230.06;;;10.59
48003;BMP280;33768;48.578;11.574;2023-04-01T11:41:19;95247.59;;;10.41
48003;BMP280;33768;48.578;11.574;2023-04-01T11:44:55;95240.59;;;10.09
48003;BMP280;33768;48.578;11.574;2023-04-01T11:55:02;95241.16;;;10.00
48003;BMP280;33768;48.578;11.574;2023-04-01T12:05:41;95222.13;;;9.56
48003;BMP280;33768;48.578;11.574;2023-04-01T12:12:25;95233.56;;;9.47
48003;BMP280;33768;48.578;11.574;2023-04-01T12:15:54;95230.84;;;9.47
48003;BMP280;33768;48.578;11.574;2023-04-01T12:22:42;95233.56;;;9.62
48003;BMP280;33768;48.578;11.574;2023-04-01T12:29:24;95234.28;;;9.69
48003;BMP280;33768;48.578;11.574;2023-04-01T12:39:19;95239.53;;;9.97
48003;BMP280;33768;48.578;11.574;2023-04-01T12:42:47;95229.72;;;9.72
48003;BMP280;33768;48.578;11.574;2023-04-01T12:55:49;95223.03;;;9.80
48003;BMP280;33768;48.578;11.574;2023-04-01T12:59:27;95231.00;;;10.00
48003;BMP280;33768;48.578;11.574;2023-04-01T13:06:25;95228.22;;;10.15
48003;BMP280;33768;48.578;11.574;2023-04-01T13:09:45;95228.78;;;10.14
48003;BMP280;33768;48.578;11.574;2023-04-01T13:16:16;95225.25;;;10.35
48003;BMP280;33768;48.578;11.574;2023-04-01T13:19:31;95232.50;;;10.40
48003;BMP280;33768;48.578;11.574;2023-04-01T13:22:55;95238.50;;;10.46
48003;BMP280;33768;48.578;11.574;2023-04-01T13:32:47;95243.78;;;10.37
48003;BMP280;33768;48.578;11.574;2023-04-01T13:39:22;95259.91;;;9.96
48003;BMP280;33768;48.578;11.574;2023-04-01T13:42:38;95253.72;;;10.03
48003;BMP280;33768;48.578;11.574;2023-04-01T14:10:18;95251.25;;;10.75
48003;BMP280;33768;48.578;11.574;2023-04-01T14:16:55;95239.41;;;10.80
48003;BMP280;33768;48.578;11.574;2023-04-01T14:20:06;95245.63;;;10.73
48003;BMP280;33768;48.578;11.574;2023-04-01T14:26:35;95245.06;;;10.82
48003;BMP280;33768;48.578;11.574;2023-04-01T14:30:42;95243.91;;;10.93
48003;BMP280;33768;48.578;11.574;2023-04-01T14:33:42;95242.38;;;11.06
48003;BMP280;33768;48.578;11.574;2023-04-01T14:37:03;95248.47;;;11.22
48003;BMP280;33768;48.578;11.574;2023-04-01T14:40:34;95253.25;;;11.45
48003;BMP280;33768;48.578;11.574;2023-04-01T14:47:44;95248.56;;;11.07
48003;BMP280;33768;48.578;11.574;2023-04-01T14:50:53;95258.41;;;11.02
48003;BMP280;33768;48.578;11.574;2023-04-01T14:57:31;95256.03;;;11.30
48003;BMP280;33768;48.578;11.574;2023-04-01T15:07:29;95251.13;;;11.05
48003;BMP280;33768;48.578;11.574;2023-04-01T15:18:03;95273.28;;;10.77
48003;BMP280;33768;48.578;11.574;2023-04-01T15:25:03;95278.72;;;10.38
48003;BMP280;33768;48.578;11.574;2023-04-01T15:28:47;95281.78;;;10.35
48003;BMP280;33768;48.578;11.574;2023-04-01T15:35:19;95287.09;;;10.26
48003;BMP280;33768;48.578;11.574;2023-04-01T15:38:45;95278.53;;;10.29
48003;BMP280;33768;48.578;11.574;2023-04-01T15:42:11;95289.66;;;10.24
48003;BMP280;33768;48.578;11.574;2023-04-01T15:45:26;95288.94;;;10.16
48003;BMP280;33768;48.578;11.574;2023-04-01T15:49:05;95296.22;;;10.06
48003;BMP280;33768;48.578;11.574;2023-04-01T15:52:40;95307.31;;;10.08
48003;BMP280;33768;48.578;11.574;2023-04-01T15:59:03;95295.31;;;10.03
48003;BMP280;33768;48.578;11.574;2023-04-01T16:02:40;95291.50;;;9.99
48003;BMP280;33768;48.578;11.574;2023-04-01T16:12:56;95295.13;;;9.87
48003;BMP280;33768;48.578;11.574;2023-04-01T16:22:38;95298.94;;;9.84
48003;BMP280;33768;48.578;11.574;2023-04-01T16:25:49;95296.59;;;9.80
48003;BMP280;33768;48.578;11.574;2023-04-01T16:32:26;95310.75;;;9.64
48003;BMP280;33768;48.578;11.574;2023-04-01T16:35:46;95315.66;;;9.66
48003;BMP280;33768;48.578;11.574;2023-04-01T16:45:57;95303.47;;;9.74
48003;BMP280;33768;48.578;11.574;2023-04-01T16:49:27;95307.13;;;9.76
48003;BMP280;33768;48.578;11.574;2023-04-01T16:52:51;95320.75;;;9.76
48003;BMP280;33768;48.578;11.574;2023-04-01T16:59:20;95321.28;;;9.75
48003;BMP280;33768;48.578;11.574;2023-04-01T17:02:29;95312.19;;;9.72
48003;BMP280;33768;48.578;11.574;2023-04-01T17:05:44;95320.38;;;9.65
48003;BMP280;33768;48.578;11.574;2023-04-01T17:09:17;95325.81;;;9.58
48003;BMP280;33768;48.578;11.574;2023-04-01T17:12:38;95327.25;;;9.51
48003;BMP280;33768;48.578;11.574;2023-04-01T17:16:00;95323.28;;;9.45
48003;BMP280;33768;48.578;11.574;2023-04-01T17:25:50;95338.31;;;9.31
48003;BMP280;33768;48.578;11.574;2023-04-01T17:29:22;95331.03;;;9.26
48003;BMP280;33768;48.578;11.574;2023-04-01T17:42:40;95351.31;;;9.10
48003;BMP280;33768;48.578;11.574;2023-04-01T17:45:54;95362.00;;;9.08
48003;BMP280;33768;48.578;11.574;2023-04-01T17:52:37;95358.00;;;9.02
48003;BMP280;33768;48.578;11.574;2023-04-01T18:02:43;95372.59;;;8.84
48003;BMP280;33768;48.578;11.574;2023-04-01T18:05:53;95372.97;;;8.81
48003;BMP280;33768;48.578;11.574;2023-04-01T18:19:43;95392.91;;;8.76
48003;BMP280;33768;48.578;11.574;2023-04-01T18:26:10;95403.44;;;8.79
48003;BMP280;33768;48.578;11.574;2023-04-01T18:32:46;95403.97;;;8.78
48003;BMP280;33768;48.578;11.574;2023-04-01T18:39:35;95417.94;;;8.74
48003;BMP280;33768;48.578;11.574;2023-04-01T18:43:02;95427.00;;;8.77
48003;BMP280;33768;48.578;11.574;2023-04-01T18:46:19;95421.91;;;8.73
48003;BMP280;33768;48.578;11.574;2023-04-01T18:53:41;95434.56;;;8.71
48003;BMP280;33768;48.578;11.574;2023-04-01T18:56:46;95436.06;;;8.72
48003;BMP280;33768;48.578;11.574;2023-04-01T18:59:57;95450.91;;;8.71
48003;BMP280;33768;48.578;11.574;2023-04-01T19:03:12;95446.94;;;8.72
48003;BMP280;33768;48.578;11.574;2023-04-01T19:06:45;95451.09;;;8.73
48003;BMP280;33768;48.578;11.574;2023-04-01T19:09:51;95447.09;;;8.74
48003;BMP280;33768;48.578;11.574;2023-04-01T19:19:56;95464.69;;;8.73
48003;BMP280;33768;48.578;11.574;2023-04-01T19:27:14;95466.91;;;8.74
48003;BMP280;33768;48.578;11.574;2023-04-01T19:34:03;95479.63;;;8.79
48003;BMP280;33768;48.578;11.574;2023-04-01T19:37:39;95478.50;;;8.75
48003;BMP280;33768;48.578;11.574;2023-04-01T19:44:21;95478.69;;;8.77
48003;BMP280;33768;48.578;11.574;2023-04-01T19:50:58;95480.16;;;8.78
48003;BMP280;33768;48.578;11.574;2023-04-01T20:00:32;95477.22;;;8.76
48003;BMP280;33768;48.578;11.574;2023-04-01T20:03:39;95482.16;;;8.77
48003;BMP280;33768;48.578;11.574;2023-04-01T20:06:59;95486.88;;;8.77
48003;BMP280;33768;48.578;11.574;2023-04-01T20:10:35;95491.22;;;8.80
48003;BMP280;33768;48.578;11.574;2023-04-01T20:17:25;95498.47;;;8.77
48003;BMP280;33768;48.578;11.574;2023-04-01T20:20:34;95498.66;;;8.79
48003;BMP280;33768;48.578;11.574;2023-04-01T20:23:42;95497.75;;;8.77
48003;BMP280;33768;48.578;11.574;2023-04-01T20:26:59;95492.31;;;8.77
48003;BMP280;33768;48.578;11.574;2023-04-01T20:37:14;95508.63;;;8.77
48003;BMP280;33768;48.578;11.574;2023-04-01T20:40:41;95498.06;;;8.73
48003;BMP280;33768;48.578;11.574;2023-04-01T20:57:21;95527.00;;;8.64
48003;BMP280;33768;48.578;11.574;2023-04-01T21:00:34;95518.13;;;8.63
48003;BMP280;33768;48.578;11.574;2023-04-01T21:07:25;95522.97;;;8.57
48003;BMP280;33768;48.578;11.574;2023-04-01T21:21:31;95543.19;;;8.49
48003;BMP280;33768;48.578;11.574;2023-04-01T21:28:45;95541.03;;;8.47
48003;BMP280;33768;48.578;11.574;2023-04-01T21:32:06;95542.81;;;8.45
48003;BMP280;33768;48.578;11.574;2023-04-01T21:42:09;95546.41;;;8.40
48003;BMP280;33768;48.578;11.574;2023-04-01T21:48:53;95550.69;;;8.36
48003;BMP280;33768;48.578;11.574;2023-04-01T22:06:42;95554.63;;;8.27
48003;BMP280;33768;48.578;11.574;2023-04-01T22:25:56;95590.41;;;8.18
48003;BMP280;33768;48.578;11.574;2023-04-01T22:30:04;95584.78;;;8.16
48003;BMP280;33768;48.578;11.574;2023-04-01T22:33:20;95588.53;;;8.13
48003;BMP280;33768;48.578;11.574;2023-04-01T22:36:48;95600.25;;;8.09
48003;BMP280;33768;48.578;11.574;2023-04-01T22:40:09;95590.41;;;8.06
48003;BMP280;33768;48.578;11.574;2023-04-01T22:43:25;95600.06;;;8.07
48003;BMP280;33768;48.578;11.574;2023-04-01T22:47:00;95601.09;;;8.04
48003;BMP280;33768;48.578;11.574;2023-04-01T22:51:10;95597.44;;;8.01
48003;BMP280;33768;48.578;11.574;2023-04-01T22:54:12;95592.00;;;8.01
48003;BMP280;33768;48.578;11.574;2023-04-01T22:58:00;95593.06;;;7.98
48003;BMP280;33768;48.578;11.574;2023-04-01T23:01:41;95598.50;;;7.98
48003;BMP280;33768;48.578;11.574;2023-04-01T23:05:41;95606.47;;;7.96
48003;BMP280;33768;48.578;11.574;2023-04-01T23:12:22;95594.66;;;7.94
48003;BMP280;33768;48.578;11.574;2023-04-01T23:15:59;95604.25;;;7.95
48003;BMP280;33768;48.578;11.574;2023-04-01T23:22:37;95605.72;;;7.96
48003;BMP280;33768;48.578;11.574;2023-04-01T23:26:09;95621.72;;;7.99
48003;BMP280;33768;48.578;11.574;2023-04-01T23:29:18;95618.06;;;7.97
48003;BMP280;33768;48.578;11.574;2023-04-01T23:32:24;95622.94;;;7.98
48003;BMP280;33768;48.578;11.574;2023-04-01T23:35:32;95625.47;;;7.96
48003;BMP280;33768;48.578;11.574;2023-04-01T23:38:41;95629.66;;;7.97
48003;BMP280;33768;48.578;11.574;2023-04-01T23:41:45;95635.59;;;7.96
48003;BMP280;33768;48.578;11.574;2023-04-01T23:44:51;95626.22;;;7.97
48003;BMP280;33768;48.578;11.574;2023-04-01T23:47:57;95632.38;;;7.97
48003;BMP280;33768;48.578;11.574;2023-04-01T23:51:02;95630.38;;;7.98
48003;BMP280;33768;48.578;11.574;2023-04-01T23:54:14;95636.00;;;8.00
48003;BMP280;33768;48.578;11.574;2023-04-01T23:57:29;95632.75;;;8.01
